createdAt,value
2017-09-25T00:03:05.979Z,12.00
2017-09-25T00:08:08.612Z,11.90
2017-09-25T00:13:12.005Z,11.80
2017-09-25T00:18:14.601Z,11.80
2017-09-25T00:23:17.229Z,11.80
2017-09-25T00:28:19.817Z,11.70
2017-09-25T00:33:22.432Z,11.70
2017-09-25T00:38:25.048Z,11.60
2017-09-25T00:43:27.659Z,11.60
2017-09-25T00:48:30.309Z,11.50
2017-09-25T00:53:45.722Z,11.50
2017-09-25T00:58:48.337Z,11.50
2017-09-25T01:03:53.851Z,11.40
2017-09-25T01:08:57.265Z,11.40
2017-09-25T01:13:59.910Z,11.30
2017-09-25T01:19:02.517Z,11.30
2017-09-25T01:24:05.127Z,11.30
2017-09-25T01:29:07.727Z,11.20
2017-09-25T01:34:10.331Z,11.20
2017-09-25T01:39:12.959Z,11.10
2017-09-25T01:44:15.620Z,11.10
2017-09-25T01:49:18.225Z,11.10
2017-09-25T01:54:20.824Z,11.10
2017-09-25T01:59:23.427Z,11.00
2017-09-25T02:04:26.057Z,11.00
2017-09-25T02:09:28.677Z,11.00
2017-09-25T02:14:31.282Z,11.00
2017-09-25T02:19:33.921Z,10.90
2017-09-25T02:24:36.591Z,10.90
2017-09-25T02:29:39.242Z,10.90
2017-09-25T02:34:41.886Z,10.80
2017-09-25T02:39:44.519Z,10.80
2017-09-25T02:44:47.102Z,10.80
2017-09-25T02:49:49.730Z,10.80
2017-09-25T02:54:52.359Z,10.70
2017-09-25T02:59:54.974Z,10.70
2017-09-25T03:04:57.602Z,10.60
2017-09-25T03:10:00.206Z,10.60
2017-09-25T03:15:03.605Z,10.50
2017-09-25T03:20:06.266Z,10.50
2017-09-25T03:25:08.895Z,10.50
2017-09-25T03:30:11.489Z,10.50
2017-09-25T03:35:14.085Z,10.40
2017-09-25T03:40:16.702Z,10.40
2017-09-25T03:45:19.319Z,10.40
2017-09-25T03:50:21.973Z,10.30
2017-09-25T03:55:24.608Z,10.30
2017-09-25T04:00:27.290Z,10.30
2017-09-25T04:05:29.926Z,10.30
2017-09-25T04:10:33.306Z,10.30
2017-09-25T04:15:35.938Z,10.20
2017-09-25T04:20:38.552Z,10.20
2017-09-25T04:25:41.943Z,10.20
2017-09-25T04:30:44.538Z,10.20
2017-09-25T04:35:47.154Z,10.20
2017-09-25T04:40:50.522Z,10.20
2017-09-25T04:45:53.393Z,10.10
2017-09-25T04:50:56.799Z,10.20
2017-09-25T04:55:59.394Z,10.10
2017-09-25T05:01:02.027Z,10.20
2017-09-25T05:06:04.662Z,10.20
2017-09-25T05:11:07.329Z,10.20
2017-09-25T05:16:09.940Z,10.20
2017-09-25T05:21:12.783Z,10.20
2017-09-25T05:26:15.400Z,10.20
2017-09-25T05:31:18.005Z,10.20
2017-09-25T05:36:20.616Z,10.20
2017-09-25T05:41:23.220Z,10.20
2017-09-25T05:46:25.842Z,10.20
2017-09-25T05:51:28.434Z,10.30
2017-09-25T05:56:31.862Z,10.30
2017-09-25T06:01:34.477Z,10.30
2017-09-25T06:06:37.094Z,10.40
2017-09-25T06:11:39.736Z,10.40
2017-09-25T06:16:43.133Z,10.50
2017-09-25T06:21:45.798Z,10.40
2017-09-25T06:26:49.576Z,10.50
2017-09-25T06:31:52.160Z,10.50
2017-09-25T06:36:55.542Z,10.60
2017-09-25T06:41:58.172Z,10.60
2017-09-25T06:47:00.819Z,10.70
2017-09-25T06:52:03.432Z,10.80
2017-09-25T06:57:06.060Z,10.80
2017-09-25T07:02:08.645Z,10.90
2017-09-25T07:07:11.341Z,11.00
2017-09-25T07:12:13.944Z,11.10
2017-09-25T07:17:16.605Z,11.10
2017-09-25T07:22:19.274Z,11.20
2017-09-25T07:27:22.712Z,11.40
2017-09-25T07:32:25.346Z,11.30
2017-09-25T07:37:28.717Z,11.50
2017-09-25T07:42:31.360Z,11.50
2017-09-25T07:47:34.001Z,11.60
2017-09-25T07:52:36.654Z,11.70
2017-09-25T07:57:39.284Z,11.80
2017-09-25T08:02:41.907Z,11.90
2017-09-25T08:07:44.570Z,12.00
2017-09-25T08:12:47.169Z,12.20
2017-09-25T08:17:49.762Z,12.30
2017-09-25T08:22:53.169Z,12.70
2017-09-25T08:27:55.818Z,12.70
2017-09-25T08:32:58.471Z,13.10
2017-09-25T08:38:01.089Z,13.40
2017-09-25T08:43:04.235Z,13.80
2017-09-25T08:48:07.506Z,14.00
2017-09-25T08:53:10.944Z,14.60
2017-09-25T08:58:13.585Z,14.60
2017-09-25T09:03:16.356Z,14.80
2017-09-25T09:13:54.869Z,15.50
2017-09-25T09:18:59.079Z,15.80
2017-09-25T09:24:05.342Z,16.20
2017-09-25T09:29:08.728Z,16.40
2017-09-25T09:39:21.610Z,16.90
2017-09-25T09:44:27.702Z,17.00
2017-09-25T09:49:31.190Z,17.00
2017-09-25T09:54:36.512Z,17.30
2017-09-25T10:04:47.963Z,17.50
2017-09-25T10:25:12.899Z,18.30
2017-09-25T10:30:19.235Z,18.60
2017-09-25T10:35:22.661Z,18.90
2017-09-25T10:40:27.957Z,19.10
2017-09-25T10:45:31.459Z,19.30
2017-09-25T10:50:36.614Z,19.70
2017-09-25T10:55:42.829Z,19.70
2017-09-25T11:05:54.214Z,20.10
2017-09-25T11:11:01.276Z,20.30
2017-09-25T11:16:06.930Z,20.40
2017-09-25T11:21:10.958Z,20.60
2017-09-25T11:31:24.806Z,20.80
2017-09-25T11:36:28.323Z,20.90
2017-09-25T11:41:34.487Z,21.10
2017-09-25T11:46:38.843Z,21.00
2017-09-25T11:51:43.297Z,21.00
2017-09-25T11:56:46.802Z,21.00
2017-09-25T12:01:51.201Z,21.00
2017-09-25T12:06:57.880Z,21.00
2017-09-25T12:12:01.984Z,20.90
2017-09-25T12:17:07.214Z,20.80
2017-09-25T12:32:25.150Z,20.80
2017-09-25T12:37:28.024Z,20.80
2017-09-25T12:42:32.554Z,20.90
2017-09-25T12:47:35.353Z,21.00
2017-09-25T12:52:39.847Z,21.10
2017-09-25T12:57:43.621Z,21.20
2017-09-25T13:02:47.919Z,21.50
2017-09-25T13:13:01.201Z,21.60
2017-09-25T13:18:05.947Z,21.70
2017-09-25T13:23:09.920Z,21.80
2017-09-25T13:28:16.200Z,21.80
2017-09-25T13:33:22.659Z,21.70
2017-09-25T13:38:29.737Z,21.80
2017-09-25T13:48:41.424Z,21.60
2017-09-25T14:04:02.730Z,21.60
2017-09-25T14:19:20.937Z,21.60
2017-09-25T14:24:25.582Z,21.60
2017-09-25T14:29:31.890Z,21.50
2017-09-25T14:34:36.738Z,21.40
2017-09-25T14:55:04.595Z,21.10
2017-09-25T15:00:08.845Z,21.00
2017-09-25T15:05:12.483Z,21.00
2017-09-25T15:10:15.430Z,20.90
2017-09-25T15:15:18.412Z,20.80
2017-09-25T15:20:21.390Z,20.70
2017-09-25T15:25:24.337Z,20.70
2017-09-25T15:30:31.311Z,20.60
2017-09-25T15:35:34.133Z,20.50
2017-09-25T15:40:38.007Z,20.40
2017-09-25T15:45:41.820Z,20.30
2017-09-25T15:50:44.808Z,20.20
2017-09-25T15:55:47.738Z,20.10
2017-09-25T16:00:50.772Z,19.90
2017-09-25T16:05:54.524Z,19.80
2017-09-25T16:10:58.409Z,19.60
2017-09-25T16:16:02.174Z,19.60
2017-09-25T16:21:05.035Z,19.50
2017-09-25T16:26:09.906Z,19.40
2017-09-25T16:31:13.642Z,19.10
2017-09-25T16:36:19.172Z,19.10
2017-09-25T16:41:25.139Z,19.00
2017-09-25T16:46:28.861Z,18.80
2017-09-25T16:51:32.827Z,18.80
2017-09-25T16:56:35.977Z,18.70
2017-09-25T17:01:38.794Z,18.60
2017-09-25T17:06:42.343Z,18.40
2017-09-25T17:11:46.490Z,18.30
2017-09-25T17:16:53.038Z,18.20
2017-09-25T17:21:59.328Z,18.00
2017-09-25T17:32:09.289Z,17.80
2017-09-25T17:37:12.958Z,17.60
2017-09-25T17:42:16.803Z,17.50
2017-09-25T17:52:28.380Z,17.30
2017-09-25T17:57:34.197Z,17.20
2017-09-25T18:02:36.900Z,17.10
2017-09-25T18:07:39.982Z,17.00
2017-09-25T18:12:45.799Z,16.80
2017-09-25T18:17:50.527Z,16.70
2017-09-25T18:22:53.586Z,16.70
2017-09-25T18:27:56.625Z,16.50
2017-09-25T18:33:01.091Z,16.40
2017-09-25T18:38:04.615Z,16.20
2017-09-25T18:43:10.999Z,16.20
2017-09-25T18:48:14.486Z,16.10
2017-09-25T18:53:18.350Z,16.00
2017-09-25T18:58:21.877Z,15.80
2017-09-25T19:03:27.245Z,15.70
2017-09-25T19:08:30.015Z,15.60
2017-09-25T19:28:56.556Z,15.10
2017-09-25T19:34:01.386Z,15.00
2017-09-25T19:39:08.715Z,14.90
2017-09-25T19:44:15.913Z,14.80
2017-09-25T19:49:32.981Z,14.80
2017-09-25T19:54:41.945Z,14.70
2017-09-25T19:59:45.418Z,14.60
2017-09-25T20:04:50.096Z,14.60
2017-09-25T20:09:53.842Z,14.50
2017-09-25T20:15:10.528Z,14.50
2017-09-25T20:20:15.206Z,14.40
2017-09-25T20:25:18.555Z,14.30
2017-09-25T20:30:22.956Z,14.30
2017-09-25T20:35:26.456Z,14.30
2017-09-25T20:40:37.327Z,14.20
2017-09-25T20:45:40.778Z,14.10
2017-09-25T20:50:44.758Z,14.10
2017-09-25T20:55:48.704Z,14.10
2017-09-25T21:00:52.182Z,14.00
2017-09-25T21:05:56.500Z,13.90
2017-09-25T21:16:06.715Z,13.80
2017-09-25T21:21:10.086Z,13.80
2017-09-25T21:36:50.219Z,13.60
2017-09-25T21:41:53.327Z,13.60
2017-09-25T21:46:56.747Z,13.60
2017-09-25T21:52:00.471Z,13.40
2017-09-25T21:57:03.209Z,13.50
2017-09-25T22:02:05.936Z,13.40
2017-09-25T22:07:09.241Z,13.40
2017-09-25T22:12:12.742Z,13.30
2017-09-25T22:17:15.763Z,13.30
2017-09-25T22:22:18.503Z,13.20
2017-09-25T22:27:22.955Z,13.20
2017-09-25T22:32:26.322Z,13.10
2017-09-25T22:37:30.626Z,13.10
2017-09-25T22:42:34.986Z,13.10
2017-09-25T22:47:39.117Z,13.00
2017-09-25T22:52:45.975Z,13.00
2017-09-25T22:57:48.769Z,12.90
2017-09-25T23:02:52.321Z,12.90
2017-09-25T23:07:55.769Z,12.90
2017-09-25T23:12:58.734Z,12.90
2017-09-25T23:18:02.982Z,12.80
2017-09-25T23:23:07.353Z,12.80
2017-09-25T23:28:13.538Z,12.80
2017-09-25T23:33:16.281Z,12.80
2017-09-25T23:38:20.651Z,12.80
2017-09-25T23:48:36.662Z,12.70
2017-09-25T23:53:41.748Z,12.70
2017-09-25T23:58:44.832Z,12.70
